createdAt,value
2019-03-26T00:00:26.607Z,3.37
2019-03-26T00:02:54.861Z,3.57
2019-03-26T00:05:22.942Z,5.50
2019-03-26T00:07:51.147Z,4.57
2019-03-26T00:10:20.179Z,7.63
2019-03-26T00:12:48.266Z,5.10
2019-03-26T00:15:16.350Z,4.53
2019-03-26T00:17:44.417Z,5.70
2019-03-26T00:20:12.702Z,4.53
2019-03-26T00:22:40.790Z,4.63
2019-03-26T00:25:08.846Z,4.60
2019-03-26T00:27:36.948Z,4.10
2019-03-26T00:30:05.500Z,4.27
2019-03-26T00:32:33.668Z,4.00
2019-03-26T00:35:01.718Z,3.53
2019-03-26T00:37:29.766Z,4.83
2019-03-26T00:39:57.838Z,6.77
2019-03-26T00:42:25.886Z,6.27
2019-03-26T00:44:53.933Z,6.90
2019-03-26T00:47:22.003Z,6.33
2019-03-26T00:49:50.082Z,4.20
2019-03-26T00:52:18.191Z,2.77
2019-03-26T00:54:46.232Z,4.43
2019-03-26T00:57:14.271Z,4.13
2019-03-26T00:59:42.321Z,6.07
2019-03-26T01:02:10.370Z,6.00
2019-03-26T01:04:38.481Z,3.77
2019-03-26T01:07:06.554Z,3.47
2019-03-26T01:09:34.594Z,5.00
2019-03-26T01:12:02.653Z,4.53
2019-03-26T01:14:30.718Z,6.50
2019-03-26T01:16:58.765Z,4.63
2019-03-26T01:19:26.839Z,6.30
2019-03-26T01:21:54.890Z,5.73
2019-03-26T01:24:22.946Z,5.07
2019-03-26T01:26:50.992Z,4.70
2019-03-26T01:29:19.050Z,5.73
2019-03-26T01:31:47.092Z,6.40
2019-03-26T01:34:15.134Z,6.90
2019-03-26T01:36:43.199Z,5.83
2019-03-26T01:39:11.245Z,3.00
2019-03-26T01:41:39.330Z,5.47
2019-03-26T01:44:07.374Z,3.60
2019-03-26T01:46:35.409Z,4.50
2019-03-26T01:49:03.482Z,4.27
2019-03-26T01:51:33.546Z,5.13
2019-03-26T01:54:02.338Z,8.57
2019-03-26T01:56:30.497Z,5.53
2019-03-26T01:58:58.548Z,5.37
2019-03-26T02:01:26.646Z,3.63
2019-03-26T02:03:54.697Z,4.23
2019-03-26T02:06:22.758Z,3.43
2019-03-26T02:08:50.806Z,6.33
2019-03-26T02:11:18.875Z,3.23
2019-03-26T02:13:46.943Z,6.17
2019-03-26T02:16:15.012Z,5.70
2019-03-26T02:18:43.062Z,5.57
2019-03-26T02:21:11.107Z,1.93
2019-03-26T02:23:39.163Z,4.43
2019-03-26T02:26:07.232Z,4.27
2019-03-26T02:28:35.286Z,3.00
2019-03-26T02:31:03.387Z,8.73
2019-03-26T02:33:31.484Z,3.13
2019-03-26T02:35:59.547Z,4.33
2019-03-26T02:38:27.603Z,4.97
2019-03-26T02:40:55.653Z,8.47
2019-03-26T02:43:23.733Z,3.23
2019-03-26T02:45:51.776Z,4.53
2019-03-26T02:48:19.823Z,6.10
2019-03-26T02:50:47.875Z,4.03
2019-03-26T02:53:15.951Z,5.97
2019-03-26T02:55:43.976Z,3.77
2019-03-26T02:58:12.033Z,4.43
2019-03-26T03:00:40.101Z,7.50
2019-03-26T03:03:08.159Z,4.33
2019-03-26T03:05:36.420Z,10.33
2019-03-26T03:08:04.557Z,7.40
2019-03-26T03:10:32.604Z,5.83
2019-03-26T03:13:00.675Z,5.03
2019-03-26T03:15:28.731Z,6.80
2019-03-26T03:17:56.785Z,5.07
2019-03-26T03:20:24.827Z,3.93
2019-03-26T03:22:52.874Z,4.03
2019-03-26T03:25:20.935Z,5.37
2019-03-26T03:27:48.998Z,6.63
2019-03-26T03:30:17.119Z,6.03
2019-03-26T03:32:45.183Z,9.47
2019-03-26T03:35:13.247Z,7.10
2019-03-26T03:37:41.285Z,5.00
2019-03-26T03:40:09.507Z,8.20
2019-03-26T03:42:37.555Z,10.10
2019-03-26T03:45:06.785Z,6.03
2019-03-26T03:47:34.832Z,6.57
2019-03-26T03:50:02.948Z,7.80
2019-03-26T03:52:32.570Z,5.83
2019-03-26T03:55:00.898Z,12.13
2019-03-26T03:57:30.446Z,4.83
2019-03-26T03:59:59.373Z,8.37
2019-03-26T04:02:27.408Z,9.23
2019-03-26T04:04:55.474Z,6.53
2019-03-26T04:07:23.555Z,6.70
2019-03-26T04:09:51.681Z,9.13
2019-03-26T04:12:19.729Z,6.73
2019-03-26T04:14:47.804Z,6.47
2019-03-26T04:17:15.858Z,6.63
2019-03-26T04:19:43.974Z,5.80
2019-03-26T04:22:12.062Z,8.13
2019-03-26T04:24:40.110Z,9.93
2019-03-26T04:27:08.169Z,4.77
2019-03-26T04:29:36.788Z,10.73
2019-03-26T04:32:04.852Z,8.07
2019-03-26T04:34:32.893Z,9.83
2019-03-26T04:37:00.956Z,5.93
2019-03-26T04:39:28.998Z,4.83
2019-03-26T04:41:57.042Z,18.10
2019-03-26T04:44:25.107Z,12.67
2019-03-26T04:46:53.163Z,8.83
2019-03-26T04:49:21.214Z,9.00
2019-03-26T04:51:53.010Z,6.67
2019-03-26T04:54:21.066Z,6.20
2019-03-26T04:56:49.174Z,5.67
2019-03-26T04:59:17.231Z,5.80
2019-03-26T05:01:45.284Z,5.93
2019-03-26T05:04:13.338Z,6.93
2019-03-26T05:06:41.402Z,7.93
2019-03-26T05:09:09.454Z,9.83
2019-03-26T05:11:37.511Z,7.30
2019-03-26T05:14:05.622Z,6.40
2019-03-26T05:16:33.684Z,3.70
2019-03-26T05:19:01.744Z,6.27
2019-03-26T05:21:29.821Z,7.53
2019-03-26T05:23:57.846Z,6.87
2019-03-26T05:26:26.978Z,6.17
2019-03-26T05:28:55.515Z,4.03
2019-03-26T05:31:23.558Z,7.90
2019-03-26T05:33:51.630Z,17.60
2019-03-26T05:36:19.677Z,6.77
2019-03-26T05:38:47.720Z,4.67
2019-03-26T05:41:15.778Z,9.67
2019-03-26T05:43:43.843Z,11.20
2019-03-26T05:46:11.902Z,6.67
2019-03-26T05:48:39.982Z,9.93
2019-03-26T05:51:09.584Z,7.70
2019-03-26T05:53:37.718Z,6.33
2019-03-26T05:56:05.766Z,5.53
2019-03-26T05:58:33.834Z,7.50
2019-03-26T06:01:01.877Z,7.13
2019-03-26T06:03:29.934Z,7.73
2019-03-26T06:05:58.010Z,8.33
2019-03-26T06:08:26.076Z,14.73
2019-03-26T06:10:54.130Z,9.73
2019-03-26T06:13:22.187Z,16.03
2019-03-26T06:15:50.237Z,6.67
2019-03-26T06:18:18.303Z,12.40
2019-03-26T06:20:46.403Z,12.53
2019-03-26T06:23:14.432Z,11.80
2019-03-26T06:25:42.491Z,21.43
2019-03-26T06:28:10.541Z,15.60
2019-03-26T06:30:38.606Z,25.50
2019-03-26T06:33:06.650Z,13.23
2019-03-26T06:35:34.721Z,9.30
2019-03-26T06:38:22.111Z,7.57
2019-03-26T06:40:50.467Z,14.63
2019-03-26T06:43:18.518Z,17.20
2019-03-26T06:45:46.607Z,10.93
2019-03-26T06:48:14.666Z,6.90
2019-03-26T06:50:42.730Z,13.73
2019-03-26T06:53:16.190Z,15.17
2019-03-26T06:55:44.253Z,8.37
2019-03-26T06:58:12.288Z,9.37
2019-03-26T07:00:40.392Z,8.00
2019-03-26T07:03:08.594Z,11.43
2019-03-26T07:05:36.637Z,8.87
2019-03-26T07:08:04.741Z,11.93
2019-03-26T07:10:32.823Z,10.67
2019-03-26T07:13:00.880Z,9.10
2019-03-26T07:15:28.926Z,11.83
2019-03-26T07:17:56.954Z,7.83
2019-03-26T07:20:25.010Z,8.60
2019-03-26T07:22:53.059Z,8.77
2019-03-26T07:25:21.115Z,7.37
2019-03-26T07:27:49.229Z,5.47
2019-03-26T07:30:35.067Z,8.77
2019-03-26T07:33:03.111Z,9.13
2019-03-26T07:35:33.436Z,7.57
2019-03-26T07:38:01.503Z,6.03
2019-03-26T07:40:29.553Z,11.57
2019-03-26T07:42:58.199Z,8.30
2019-03-26T07:45:26.255Z,5.87
2019-03-26T07:47:54.310Z,6.00
2019-03-26T07:50:22.351Z,5.90
2019-03-26T07:52:50.396Z,8.27
2019-03-26T07:55:18.454Z,7.60
2019-03-26T07:57:46.502Z,7.33
2019-03-26T08:00:14.719Z,7.67
2019-03-26T08:02:42.842Z,6.30
2019-03-26T08:05:10.930Z,6.87
2019-03-26T08:07:38.976Z,9.23
2019-03-26T08:10:07.483Z,10.73
2019-03-26T08:12:35.544Z,8.20
2019-03-26T08:15:05.001Z,11.63
2019-03-26T08:17:33.081Z,10.37
2019-03-26T08:20:01.195Z,13.13
2019-03-26T08:22:29.247Z,10.07
2019-03-26T08:24:57.295Z,9.03
2019-03-26T08:27:25.338Z,9.00
2019-03-26T08:29:53.414Z,11.37
2019-03-26T08:32:21.626Z,7.93
2019-03-26T08:34:49.721Z,8.80
2019-03-26T08:37:17.774Z,8.60
2019-03-26T08:39:45.821Z,11.37
2019-03-26T14:04:02.995Z,6.53
2019-03-26T14:06:32.467Z,9.00
2019-03-26T14:09:00.684Z,7.60
2019-03-26T14:11:28.718Z,7.57
2019-03-26T14:13:56.765Z,4.63
2019-03-26T14:16:24.812Z,4.27
2019-03-26T14:18:52.860Z,6.13
2019-03-26T14:21:20.940Z,4.80
2019-03-26T14:23:49.043Z,6.23
2019-03-26T14:26:17.082Z,8.30
2019-03-26T14:28:45.149Z,3.00
2019-03-26T14:31:13.186Z,7.17
2019-03-26T14:33:41.228Z,4.90
2019-03-26T14:36:09.292Z,7.50
2019-03-26T14:38:37.349Z,9.27
2019-03-26T14:41:05.462Z,4.57
2019-03-26T14:43:33.502Z,3.80
2019-03-26T14:46:01.670Z,5.80
2019-03-26T14:48:29.727Z,10.13
2019-03-26T14:50:57.766Z,8.57
2019-03-26T14:53:25.822Z,7.40
2019-03-26T14:55:53.879Z,5.53
2019-03-26T14:58:21.926Z,7.37
2019-03-26T15:00:49.991Z,7.33
2019-03-26T15:03:18.051Z,9.10
2019-03-26T15:05:46.931Z,7.60
2019-03-26T15:08:15.102Z,7.80
2019-03-26T15:10:43.158Z,6.57
2019-03-26T15:13:11.196Z,7.57
2019-03-26T15:15:39.244Z,6.70
2019-03-26T15:18:07.287Z,8.27
2019-03-26T15:20:36.035Z,6.90
2019-03-26T15:23:04.107Z,7.90
2019-03-26T15:25:32.159Z,8.37
2019-03-26T15:28:00.274Z,8.73
2019-03-26T15:30:28.327Z,8.23
2019-03-26T15:32:56.374Z,10.03
2019-03-26T15:35:24.449Z,13.87
2019-03-26T15:37:52.504Z,8.83
2019-03-26T15:40:20.547Z,8.83
2019-03-26T15:42:48.603Z,10.80
2019-03-26T15:45:16.714Z,11.40
2019-03-26T15:47:44.782Z,11.37
2019-03-26T15:50:12.998Z,12.07
2019-03-26T15:52:42.354Z,10.03
2019-03-26T15:55:10.746Z,12.13
2019-03-26T15:57:38.798Z,12.67
2019-03-26T16:00:07.841Z,10.80
2019-03-26T16:02:35.905Z,11.83
2019-03-26T16:05:05.422Z,13.27
2019-03-26T16:07:33.484Z,12.93
2019-03-26T16:10:01.524Z,15.13
2019-03-26T16:12:40.507Z,15.73
2019-03-26T16:14:59.425Z,10.97
2019-03-26T16:17:27.482Z,9.70
2019-03-26T16:19:55.544Z,8.37
2019-03-26T16:22:23.582Z,11.40
2019-03-26T16:24:53.388Z,6.53
2019-03-26T16:27:21.606Z,17.53
2019-03-26T16:29:49.702Z,9.23
2019-03-26T16:32:17.760Z,16.03
2019-03-26T16:34:45.806Z,20.60
2019-03-26T16:37:14.610Z,8.10
2019-03-26T16:39:42.658Z,10.10
2019-03-26T16:42:10.727Z,12.53
2019-03-26T16:44:38.774Z,7.77
2019-03-26T16:47:06.815Z,9.17
2019-03-26T16:49:34.871Z,12.17
2019-03-26T16:52:04.942Z,9.30
2019-03-26T16:54:33.006Z,8.40
2019-03-26T16:57:01.061Z,9.80
2019-03-26T16:59:29.099Z,9.70
2019-03-26T17:01:57.163Z,9.60
2019-03-26T17:04:25.218Z,7.23
2019-03-26T17:06:53.274Z,10.77
2019-03-26T17:09:21.330Z,9.00
2019-03-26T17:12:02.100Z,13.20
2019-03-26T17:14:19.210Z,8.73
2019-03-26T17:16:47.253Z,11.27
2019-03-26T17:19:15.322Z,9.10
2019-03-26T17:21:43.365Z,6.37
2019-03-26T17:24:11.401Z,9.97
2019-03-26T17:26:39.454Z,11.20
2019-03-26T17:29:07.571Z,9.60
2019-03-26T17:31:35.657Z,12.27
2019-03-26T17:34:03.723Z,9.00
2019-03-26T17:36:31.758Z,8.53
2019-03-26T17:38:59.845Z,12.17
2019-03-26T17:41:27.901Z,8.30
2019-03-26T17:43:55.933Z,7.40
2019-03-26T17:46:23.978Z,5.17
2019-03-26T17:48:52.037Z,8.40
2019-03-26T17:51:21.430Z,11.47
2019-03-26T17:53:49.626Z,12.40
2019-03-26T17:56:17.670Z,25.37
2019-03-26T17:58:45.713Z,18.83
2019-03-26T18:01:13.773Z,13.97
2019-03-26T18:03:41.818Z,18.23
2019-03-26T18:06:09.868Z,13.93
2019-03-26T18:08:38.569Z,14.07
2019-03-26T18:11:06.718Z,8.17
2019-03-26T18:13:34.770Z,15.17
2019-03-26T18:16:02.825Z,10.10
2019-03-26T18:18:30.881Z,11.33
2019-03-26T18:20:58.918Z,7.00
2019-03-26T18:23:26.959Z,9.67
2019-03-26T18:25:55.009Z,11.60
2019-03-26T18:28:23.059Z,9.43
2019-03-26T18:30:51.174Z,12.00
2019-03-26T18:33:19.250Z,8.50
2019-03-26T18:35:47.287Z,14.30
2019-03-26T18:38:15.342Z,9.13
2019-03-26T18:40:43.396Z,11.07
2019-03-26T18:43:11.451Z,10.63
2019-03-26T18:45:39.518Z,12.20
2019-03-26T18:48:07.581Z,9.17
2019-03-26T18:50:35.618Z,12.30
2019-03-26T18:53:03.664Z,16.07
2019-03-26T18:55:31.736Z,17.53
2019-03-26T18:57:59.783Z,14.47
2019-03-26T19:00:34.162Z,12.17
2019-03-26T19:03:02.343Z,14.00
2019-03-26T19:05:30.390Z,18.03
2019-03-26T19:07:58.514Z,12.80
2019-03-26T19:10:27.560Z,16.13
2019-03-26T19:12:57.054Z,18.13
2019-03-26T19:15:25.502Z,16.67
2019-03-26T19:17:53.546Z,14.80
2019-03-26T19:20:21.648Z,14.17
2019-03-26T19:22:49.759Z,11.80
2019-03-26T19:25:17.833Z,24.43
2019-03-26T19:27:45.891Z,19.53
2019-03-26T19:30:13.926Z,17.27
2019-03-26T19:32:42.001Z,15.70
2019-03-26T19:35:10.123Z,22.53
2019-03-26T19:37:38.210Z,15.87
2019-03-26T19:40:07.807Z,19.97
2019-03-26T19:42:35.939Z,15.60
2019-03-26T19:45:04.332Z,13.53
2019-03-26T19:47:32.419Z,13.30
2019-03-26T19:50:00.508Z,15.20
2019-03-26T19:52:28.586Z,19.37
2019-03-26T19:54:56.630Z,13.13
2019-03-26T19:57:24.686Z,19.50
2019-03-26T19:59:52.751Z,16.83
2019-03-26T20:02:20.872Z,17.00
2019-03-26T20:04:48.927Z,20.17
2019-03-26T20:07:16.976Z,17.87
2019-03-26T20:09:45.033Z,21.17
2019-03-26T20:12:13.079Z,19.63
2019-03-26T20:14:41.138Z,16.17
2019-03-26T20:17:09.184Z,19.73
2019-03-26T20:19:37.247Z,16.07
2019-03-26T20:22:05.345Z,23.50
2019-03-26T20:24:33.362Z,18.37
2019-03-26T20:27:01.426Z,20.97
2019-03-26T20:29:29.487Z,18.13
2019-03-26T20:31:57.534Z,18.60
2019-03-26T20:34:25.599Z,21.30
2019-03-26T20:36:53.682Z,17.77
2019-03-26T20:39:21.728Z,21.70
2019-03-26T20:41:49.894Z,17.47
2019-03-26T20:44:17.956Z,22.90
2019-03-26T20:46:46.012Z,15.10
2019-03-26T20:49:14.060Z,17.93
2019-03-26T20:51:46.000Z,21.10
2019-03-26T20:54:14.087Z,22.33
2019-03-26T20:56:42.170Z,20.73
2019-03-26T20:59:11.110Z,22.80
2019-03-26T21:01:39.598Z,21.93
2019-03-26T21:04:07.678Z,20.87
2019-03-26T21:06:35.746Z,21.33
2019-03-26T21:09:05.258Z,19.43
2019-03-26T21:11:34.226Z,25.37
2019-03-26T21:14:02.412Z,17.93
2019-03-26T21:16:30.630Z,17.73
2019-03-26T21:18:58.677Z,17.37
2019-03-26T21:21:26.747Z,16.93
2019-03-26T21:23:54.782Z,16.57
2019-03-26T21:26:22.834Z,19.90
2019-03-26T21:28:50.894Z,23.67
2019-03-26T21:31:18.936Z,16.93
2019-03-26T21:33:46.977Z,20.87
2019-03-26T21:36:15.062Z,20.83
2019-03-26T21:38:43.126Z,25.60
2019-03-26T21:41:11.178Z,26.80
2019-03-26T21:43:39.421Z,21.47
2019-03-26T21:46:07.438Z,25.63
2019-03-26T21:48:35.592Z,23.50
2019-03-26T21:51:03.731Z,23.30
2019-03-26T21:53:31.766Z,24.43
2019-03-26T21:56:06.393Z,29.43
2019-03-26T21:58:29.632Z,29.23
2019-03-26T22:00:57.681Z,29.53
2019-03-26T22:03:25.911Z,22.73
2019-03-26T22:05:53.982Z,27.40
2019-03-26T22:08:22.046Z,29.13
2019-03-26T22:10:50.094Z,20.30
2019-03-26T22:13:18.154Z,23.23
2019-03-26T22:15:46.212Z,25.90
2019-03-26T22:18:14.261Z,23.77
2019-03-26T22:20:42.309Z,24.87
2019-03-26T22:23:10.471Z,25.63
2019-03-26T22:25:38.599Z,23.03
2019-03-26T22:28:06.651Z,21.20
2019-03-26T22:30:34.725Z,24.87
2019-03-26T22:33:02.775Z,23.70
2019-03-26T22:35:30.826Z,24.33
2019-03-26T22:37:58.900Z,20.57
2019-03-26T22:40:26.948Z,21.27
2019-03-26T22:42:55.084Z,23.90
2019-03-26T22:45:23.148Z,23.33
2019-03-26T22:47:51.214Z,25.17
2019-03-26T22:50:19.285Z,23.73
2019-03-26T22:52:47.373Z,20.47
2019-03-26T22:55:15.434Z,20.23
2019-03-26T22:57:43.489Z,19.40
2019-03-26T23:00:19.036Z,22.57
2019-03-26T23:02:47.243Z,19.40
2019-03-26T23:05:15.660Z,19.27
2019-03-26T23:07:43.711Z,18.47
2019-03-26T23:10:12.547Z,21.93
2019-03-26T23:12:40.590Z,16.90
2019-03-26T23:15:16.120Z,22.03
2019-03-26T23:17:44.167Z,16.73
2019-03-26T23:20:12.205Z,19.63
2019-03-26T23:22:40.256Z,19.73
2019-03-26T23:25:08.317Z,31.93
2019-03-26T23:27:36.438Z,47.47
2019-03-26T23:30:07.464Z,32.80
2019-03-26T23:32:35.573Z,21.23
2019-03-26T23:35:04.598Z,20.07
2019-03-26T23:37:32.641Z,20.17
2019-03-26T23:40:00.694Z,19.57
2019-03-26T23:42:28.743Z,14.97
2019-03-26T23:44:58.450Z,14.63
2019-03-26T23:47:26.562Z,14.23
2019-03-26T23:49:54.610Z,15.93
2019-03-26T23:52:22.662Z,24.10
2019-03-26T23:54:50.713Z,15.17
2019-03-26T23:57:18.767Z,14.40
2019-03-26T23:59:46.889Z,16.40
